Time;durP1;ratioP1;P1;durP2;ratioP2;P2;SDS_P1;SDS_P2;PMS_P1;PMS_P2;Temp;Humidity;BMP_temperature;BMP_pressure;BME280_temperature;BME280_humidity;BME280_pressure;Samples;Min_cycle;Max_cycle;Signal;HPM_P1;HPM_P2
2023/10/05 00:01:44;;;;;;;;;7.00;6.33;;;;;13.87;100.00;102532.00;5018613;28;46720;-76
2023/10/05 00:04:11;;;;;;;;;8.33;7.33;;;;;13.82;100.00;102518.00;5014779;28;46869;-77
2023/10/05 00:06:42;;;;;;;;;11.67;10.00;;;;;13.90;100.00;102534.59;5016445;28;45576;-77
2023/10/05 00:09:11;;;;;;;;;15.33;9.33;;;;;13.62;100.00;102480.56;5021574;28;45764;-77
2023/10/05 00:11:36;;;;;;;;;10.00;9.67;;;;;13.78;100.00;102497.75;5015325;28;45982;-77
2023/10/05 00:14:07;;;;;;;;;8.00;7.00;;;;;13.71;100.00;102480.25;5013419;28;46791;-77
2023/10/05 00:16:38;;;;;;;;;4.33;3.00;;;;;13.85;100.00;102501.06;5016059;28;45437;-77
2023/10/05 00:19:12;;;;;;;;;12.33;11.00;;;;;13.82;100.00;102515.34;5027429;28;45373;-75
2023/10/05 00:21:52;;;;;;;;;8.67;8.33;;;;;13.82;100.00;102527.78;5019138;28;45649;-76
2023/10/05 00:24:23;;;;;;;;;11.00;10.33;;;;;13.76;100.00;102522.66;5026179;28;46641;-76
2023/10/05 00:26:49;;;;;;;;;9.00;9.00;;;;;13.68;100.00;102508.78;5026446;28;45473;-76
2023/10/05 00:29:19;;;;;;;;;7.33;7.33;;;;;13.76;100.00;102517.34;5026111;28;45333;-76
2023/10/05 00:31:45;;;;;;;;;10.00;8.33;;;;;13.77;100.00;102512.00;5023513;28;46864;-77
2023/10/05 00:34:24;;;;;;;;;10.33;7.00;;;;;13.72;100.00;102511.25;5026315;28;46238;-77
2023/10/05 00:36:50;;;;;;;;;6.33;6.33;;;;;13.61;100.00;102496.59;5019350;28;45341;-78
2023/10/05 00:39:20;;;;;;;;;6.67;6.67;;;;;13.76;100.00;102534.19;5026027;28;45492;-77
2023/10/05 00:41:54;;;;;;;;;9.00;7.67;;;;;13.72;100.00;102524.56;5026594;28;45717;-76
2023/10/05 00:44:21;;;;;;;;;6.67;6.67;;;;;13.75;100.00;102535.09;5019950;28;45412;-77
2023/10/05 00:46:50;;;;;;;;;7.00;7.00;;;;;13.67;100.00;102515.00;5021506;28;45528;-77
2023/10/05 00:49:23;;;;;;;;;6.00;5.67;;;;;13.64;100.00;102510.66;5024408;28;45483;-77
2023/10/05 00:52:34;;;;;;;;;7.00;5.00;;;;;13.60;100.00;102494.84;5016582;28;47421;-77
2023/10/05 00:54:38;;;;;;;;;12.00;8.67;;;;;13.70;100.00;102509.56;5016608;28;45507;-77
2023/10/05 00:57:09;;;;;;;;;11.00;8.00;;;;;13.58;100.00;102493.09;5021779;28;45365;-77
2023/10/05 00:59:36;;;;;;;;;9.00;7.00;;;;;13.55;100.00;102505.63;5024532;28;45482;-77
2023/10/05 01:02:14;;;;;;;;;10.00;9.00;;;;;13.57;100.00;102517.97;5015548;28;45708;-77
2023/10/05 01:07:18;;;;;;;;;10.33;7.67;;;;;13.54;100.00;102514.53;5020121;28;45614;-77
2023/10/05 01:14:54;;;;;;;;;10.67;7.67;;;;;13.55;100.00;102518.91;5019881;28;45336;-78
2023/10/05 01:17:25;;;;;;;;;7.00;7.00;;;;;13.66;100.00;102530.06;5023921;28;45452;-77
2023/10/05 01:19:56;;;;;;;;;8.67;7.00;;;;;13.68;100.00;102527.38;5016960;28;45529;-77
2023/10/05 01:22:23;;;;;;;;;10.00;7.00;;;;;13.70;100.00;102534.38;5019980;28;45413;-77
2023/10/05 01:24:49;;;;;;;;;8.33;6.00;;;;;13.62;100.00;102516.91;5020529;28;46165;-77
2023/10/05 01:27:16;;;;;;;;;8.33;8.00;;;;;13.71;100.00;102525.47;5027211;28;45348;-77
2023/10/05 01:29:41;;;;;;;;;8.67;8.00;;;;;13.67;100.00;102518.53;5025820;28;45487;-77
2023/10/05 01:32:15;;;;;;;;;7.33;5.67;;;;;13.66;100.00;102503.50;5018333;28;45526;-76
2023/10/05 01:34:41;;;;;;;;;7.00;7.00;;;;;13.73;100.00;102506.81;5013277;28;47295;-76
2023/10/05 01:37:09;;;;;;;;;8.00;6.00;;;;;13.67;100.00;102499.03;5018311;28;47008;-77
2023/10/05 01:39:40;;;;;;;;;11.00;9.00;;;;;13.51;100.00;102464.97;5021022;28;45509;-76
2023/10/05 01:42:06;;;;;;;;;7.00;5.67;;;;;13.59;100.00;102475.34;5019562;28;45986;-75
2023/10/05 01:44:36;;;;;;;;;9.00;6.67;;;;;13.72;100.00;102497.97;5014167;28;46667;-76
2023/10/05 01:47:02;;;;;;;;;7.67;6.33;;;;;13.71;100.00;102487.41;5023676;28;45479;-75
2023/10/05 01:49:27;;;;;;;;;8.67;8.00;;;;;13.75;100.00;102491.66;5019965;28;45484;-76
2023/10/05 01:51:52;;;;;;;;;8.00;6.00;;;;;13.73;100.00;102499.72;5020457;28;52859;-75
2023/10/05 01:54:18;;;;;;;;;11.00;7.00;;;;;13.73;100.00;102480.22;5020027;28;45474;-75
2023/10/05 01:56:47;;;;;;;;;7.67;7.67;;;;;13.70;100.00;102488.31;5021006;28;45367;-76
2023/10/05 01:59:13;;;;;;;;;8.33;6.67;;;;;13.59;100.00;102475.34;5026188;28;45385;-75
2023/10/05 02:01:40;;;;;;;;;8.00;7.67;;;;;13.58;100.00;102470.94;5023927;28;45590;-75
2023/10/05 02:04:06;;;;;;;;;9.67;8.33;;;;;13.80;100.00;102497.72;5019613;28;45540;-76
2023/10/05 02:06:42;;;;;;;;;9.33;9.33;;;;;13.63;100.00;102478.78;5019909;28;45563;-76
2023/10/05 02:09:14;;;;;;;;;11.33;7.00;;;;;13.81;100.00;102495.00;5020975;28;45423;-76
2023/10/05 02:11:41;;;;;;;;;3.67;3.67;;;;;13.79;100.00;102488.00;5021933;28;45337;-76
2023/10/05 02:14:06;;;;;;;;;9.00;6.00;;;;;13.71;100.00;102466.13;5019172;28;45458;-76
2023/10/05 02:16:33;;;;;;;;;7.00;7.00;;;;;13.61;100.00;102456.72;5012721;28;45392;-76
2023/10/05 02:19:02;;;;;;;;;6.67;6.00;;;;;13.84;100.00;102494.03;5017141;28;45628;-76
2023/10/05 02:21:35;;;;;;;;;6.67;5.67;;;;;13.85;100.00;102496.63;5018317;28;45714;-76
2023/10/05 02:24:16;;;;;;;;;5.00;5.00;;;;;13.80;100.00;102485.28;5007969;28;46300;-75
2023/10/05 02:29:27;;;;;;;;;7.67;7.00;;;;;13.91;100.00;102490.22;5017851;28;45427;-75
2023/10/05 02:34:22;;;;;;;;;6.33;6.00;;;;;13.83;100.00;102477.22;5009628;28;45889;-76
2023/10/05 02:36:47;;;;;;;;;8.67;8.00;;;;;13.92;100.00;102490.19;5016595;28;45534;-75
2023/10/05 02:39:14;;;;;;;;;5.00;5.00;;;;;13.78;100.00;102465.84;5020161;28;45602;-76
2023/10/05 02:41:39;;;;;;;;;7.67;5.00;;;;;13.44;100.00;102417.41;5018776;28;46834;-76
2023/10/05 02:44:16;;;;;;;;;8.00;6.00;;;;;13.82;100.00;102464.81;5019577;28;45404;-76
2023/10/05 02:46:41;;;;;;;;;7.00;5.00;;;;;13.86;100.00;102484.22;5022642;28;45313;-76
2023/10/05 02:49:09;;;;;;;;;6.33;6.00;;;;;13.83;100.00;102479.00;5023094;28;45463;-76
2023/10/05 02:51:35;;;;;;;;;6.00;4.67;;;;;13.88;100.00;102483.22;5019901;28;45491;-76
2023/10/05 02:54:05;;;;;;;;;4.67;4.67;;;;;13.79;100.00;102464.94;5017523;28;45407;-76
2023/10/05 02:56:33;;;;;;;;;7.67;5.67;;;;;13.96;100.00;102490.94;5019574;28;45413;-76
2023/10/05 02:59:08;;;;;;;;;4.33;3.33;;;;;13.96;100.00;102482.97;5020267;28;45537;-76
2023/10/05 03:01:37;;;;;;;;;8.00;6.67;;;;;13.83;100.00;102463.91;5018212;28;45859;-76
2023/10/05 03:04:09;;;;;;;;;4.33;4.33;;;;;13.92;100.00;102476.88;5017094;28;47834;-77
2023/10/05 03:06:34;;;;;;;;;6.67;6.00;;;;;13.90;100.00;102467.22;5016140;28;46734;-75
2023/10/05 03:09:07;;;;;;;;;4.67;4.67;;;;;13.79;100.00;102456.06;5020531;28;45630;-75
2023/10/05 03:11:37;;;;;;;;;7.67;5.33;;;;;13.91;100.00;102468.94;5018217;28;45273;-75
2023/10/05 03:14:04;;;;;;;;;7.33;5.00;;;;;13.81;100.00;102460.41;5019541;28;45270;-75
2023/10/05 03:16:29;;;;;;;;;4.00;4.00;;;;;13.81;100.00;102455.09;5019212;28;46876;-75
2023/10/05 03:18:54;;;;;;;;;4.67;4.67;;;;;13.88;100.00;102471.72;5023470;28;45532;-76
2023/10/05 03:21:21;;;;;;;;;5.00;5.00;;;;;13.88;100.00;102469.94;5017681;28;45483;-75
2023/10/05 03:23:46;;;;;;;;;7.67;6.33;;;;;13.81;100.00;102455.09;5018323;28;46696;-76
2023/10/05 03:26:16;;;;;;;;;7.00;5.67;;;;;13.76;100.00;102462.38;5023997;28;45376;-77
2023/10/05 03:28:42;;;;;;;;;10.67;7.00;;;;;13.82;100.00;102479.91;5034185;28;45309;-76
2023/10/05 03:31:29;;;;;;;;;7.67;6.67;;;;;13.65;100.00;102453.88;5021867;28;45662;-76
2023/10/05 03:33:55;;;;;;;;;7.00;7.00;;;;;13.73;100.00;102462.47;5034145;28;47775;-76
2023/10/05 03:36:21;;;;;;;;;9.00;8.33;;;;;13.54;100.00;102446.28;5018945;28;45471;-77
2023/10/05 03:38:55;;;;;;;;;10.00;6.00;;;;;13.63;100.00;102474.34;5012307;28;45406;-76
2023/10/05 03:41:25;;;;;;;;;10.00;8.00;;;;;13.61;100.00;102465.56;5019771;28;45462;-75
2023/10/05 03:43:51;;;;;;;;;6.00;5.00;;;;;13.53;100.00;102476.44;5017232;28;45471;-76
2023/10/05 03:46:17;;;;;;;;;7.67;7.00;;;;;13.46;100.00;102471.38;5017346;28;45413;-76
2023/10/05 03:48:42;;;;;;;;;8.00;6.00;;;;;13.50;100.00;102492.50;5017413;28;45539;-75
2023/10/05 03:51:18;;;;;;;;;5.67;5.67;;;;;13.27;100.00;102456.94;5016224;28;45305;-76
2023/10/05 03:53:48;;;;;;;;;4.67;4.67;;;;;13.31;100.00;102480.72;5017845;28;46839;-75
2023/10/05 03:56:17;;;;;;;;;6.00;6.00;;;;;13.39;100.00;102501.72;5016452;28;45298;-76
2023/10/05 03:58:43;;;;;;;;;8.00;6.00;;;;;13.35;100.00;102508.91;5018668;28;45395;-76
2023/10/05 04:01:11;;;;;;;;;7.67;7.33;;;;;13.26;100.00;102501.22;5016149;28;45301;-76
2023/10/05 04:03:37;;;;;;;;;6.00;6.00;;;;;13.21;100.00;102483.69;5012543;28;46971;-76
2023/10/05 04:06:02;;;;;;;;;5.67;5.67;;;;;13.24;100.00;102494.22;5012937;28;45932;-75
2023/10/05 04:08:28;;;;;;;;;6.00;6.00;;;;;13.15;100.00;102486.56;5018025;28;45409;-75
2023/10/05 04:10:54;;;;;;;;;6.67;5.00;;;;;13.18;100.00;102492.66;5021421;28;45538;-76
2023/10/05 04:13:20;;;;;;;;;7.00;6.00;;;;;13.17;100.00;102500.66;5017892;28;46150;-76
2023/10/05 04:15:46;;;;;;;;;5.00;5.00;;;;;13.15;100.00;102502.50;5016621;28;45353;-76
2023/10/05 04:18:14;;;;;;;;;7.67;6.67;;;;;13.09;100.00;102487.59;5017528;28;45428;-76
2023/10/05 04:20:43;;;;;;;;;5.00;4.00;;;;;12.90;100.00;102465.13;5008431;28;45501;-76
2023/10/05 04:23:10;;;;;;;;;8.33;7.00;;;;;13.06;100.00;102504.47;5016742;28;45384;-76
2023/10/05 04:25:35;;;;;;;;;7.00;6.00;;;;;13.01;100.00;102508.19;5016314;28;45527;-75
2023/10/05 04:28:00;;;;;;;;;9.33;6.67;;;;;12.95;100.00;102503.94;5015833;28;45366;-76
2023/10/05 04:30:27;;;;;;;;;12.00;6.33;;;;;12.83;100.00;102485.69;5023727;28;45467;-77
2023/10/05 04:32:52;;;;;;;;;5.00;5.00;;;;;12.91;100.00;102502.28;5016414;28;46120;-76
2023/10/05 04:35:28;;;;;;;;;7.00;5.67;;;;;12.94;100.00;102499.53;5016343;28;46959;-76
2023/10/05 04:37:54;;;;;;;;;6.00;6.00;;;;;12.93;100.00;102515.50;5017673;28;45373;-76
2023/10/05 04:40:24;;;;;;;;;6.67;4.67;;;;;12.75;100.00;102490.38;5018034;28;45502;-75
2023/10/05 04:42:52;;;;;;;;;6.00;5.00;;;;;12.76;100.00;102499.22;5016174;28;47094;-76
2023/10/05 04:45:20;;;;;;;;;6.33;5.00;;;;;12.72;100.00;102498.44;5022787;28;45480;-75
2023/10/05 04:47:48;;;;;;;;;7.33;5.00;;;;;12.75;100.00;102494.81;5026151;28;45296;-76
2023/10/05 04:50:15;;;;;;;;;5.33;5.33;;;;;12.73;100.00;102497.50;5017305;28;45838;-76
2023/10/05 04:52:41;;;;;;;;;6.00;6.00;;;;;12.70;100.00;102497.59;5019705;28;45506;-75
2023/10/05 04:55:30;;;;;;;;;5.00;5.00;;;;;12.50;100.00;102468.97;5017007;28;45381;-75
2023/10/05 04:58:14;;;;;;;;;6.00;4.33;;;;;12.55;100.00;102476.81;5021464;28;45526;-75
2023/10/05 05:05:57;;;;;;;;;7.00;6.00;;;;;12.46;100.00;102485.03;5016834;28;45291;-76
2023/10/05 05:08:22;;;;;;;;;4.00;4.00;;;;;12.33;100.00;102463.28;5022222;28;45376;-76
2023/10/05 05:10:48;;;;;;;;;5.67;4.33;;;;;12.38;100.00;102482.59;5013221;28;45629;-76
2023/10/05 05:13:13;;;;;;;;;5.00;5.00;;;;;12.38;100.00;102492.31;5021297;28;45331;-76
2023/10/05 05:15:38;;;;;;;;;4.67;4.33;;;;;12.30;100.00;102481.91;5018840;28;45321;-76
2023/10/05 05:18:05;;;;;;;;;5.33;4.67;;;;;12.30;100.00;102492.53;5019587;28;45202;-74
2023/10/05 05:20:31;;;;;;;;;5.00;3.33;;;;;12.28;100.00;102496.13;5033324;28;47085;-75
2023/10/05 05:22:56;;;;;;;;;5.00;3.00;;;;;12.06;100.00;102453.41;5021641;28;45445;-77
2023/10/05 05:25:22;;;;;;;;;5.67;4.00;;;;;12.21;100.00;102491.91;5020673;28;45667;-75
2023/10/05 05:27:48;;;;;;;;;6.00;5.00;;;;;12.16;100.00;102484.09;5020139;28;45319;-75
2023/10/05 05:30:23;;;;;;;;;5.00;4.00;;;;;12.13;100.00;102480.66;5019267;28;45436;-78
2023/10/05 05:32:56;;;;;;;;;6.00;5.00;;;;;11.94;100.00;102454.59;5012794;28;45506;-78
2023/10/05 05:35:22;;;;;;;;;4.00;4.00;;;;;12.10;100.00;102480.72;5018338;28;45514;-78
2023/10/05 05:37:48;;;;;;;;;5.67;5.67;;;;;12.03;100.00;102474.72;5017046;28;46784;-78
2023/10/05 05:40:13;;;;;;;;;5.33;3.67;;;;;12.01;100.00;102482.69;5021173;28;45458;-77
2023/10/05 05:42:40;;;;;;;;;3.33;3.33;;;;;11.94;100.00;102470.50;5020670;28;45878;-77
2023/10/05 05:45:15;;;;;;;;;6.33;5.33;;;;;11.98;100.00;102490.75;5009867;28;45531;-77
2023/10/05 05:47:40;;;;;;;;;6.00;5.00;;;;;11.99;100.00;102502.22;5024257;28;45623;-77
2023/10/05 05:50:08;;;;;;;;;6.00;5.00;;;;;11.99;100.00;102504.88;5024219;28;45356;-77
2023/10/05 05:52:34;;;;;;;;;8.00;6.00;;;;;11.81;100.00;102482.34;5018264;28;45408;-78
2023/10/05 05:55:09;;;;;;;;;9.67;7.67;;;;;11.92;100.00;102495.31;5019319;28;45265;-78
2023/10/05 05:57:34;;;;;;;;;6.33;5.00;;;;;12.01;100.00;102508.34;5018239;28;45583;-77
2023/10/05 06:00:10;;;;;;;;;8.00;8.00;;;;;11.82;100.00;102475.25;5018978;28;45611;-78
2023/10/05 06:02:39;;;;;;;;;8.67;7.00;;;;;11.93;100.00;102497.94;5018567;28;45306;-77
2023/10/05 06:05:08;;;;;;;;;7.67;7.67;;;;;12.01;100.00;102518.94;5018256;28;45625;-78
2023/10/05 06:07:35;;;;;;;;;8.33;7.00;;;;;12.01;100.00;102522.47;5019398;28;45494;-77
2023/10/05 06:10:01;;;;;;;;;10.00;6.33;;;;;12.06;100.00;102522.38;5013556;28;45628;-78
2023/10/05 06:12:26;;;;;;;;;9.33;6.00;;;;;11.86;100.00;102506.97;5019109;28;46238;-78
2023/10/05 06:14:51;;;;;;;;;6.00;6.00;;;;;11.81;100.00;102487.63;5015946;28;45428;-77
2023/10/05 06:17:19;;;;;;;;;6.00;5.33;;;;;11.91;100.00;102498.91;5018741;28;45341;-76
2023/10/05 06:19:44;;;;;;;;;9.33;8.00;;;;;12.00;100.00;102507.50;5018843;28;45460;-77
2023/10/05 06:22:10;;;;;;;;;12.67;7.67;;;;;12.13;100.00;102529.25;5020510;28;46242;-76
2023/10/05 06:24:40;;;;;;;;;10.67;7.00;;;;;12.22;100.00;102531.66;5021096;28;45514;-77
2023/10/05 06:27:06;;;;;;;;;10.00;7.00;;;;;12.09;100.00;102498.41;5020847;28;45528;-77
2023/10/05 06:29:32;;;;;;;;;9.00;7.00;;;;;12.04;100.00;102475.59;5015241;28;45282;-77
2023/10/05 06:31:57;;;;;;;;;11.33;10.33;;;;;12.32;100.00;102526.97;5027323;28;46043;-77
2023/10/05 06:34:22;;;;;;;;;9.00;8.00;;;;;12.23;100.00;102493.63;5020216;28;45284;-77
2023/10/05 06:36:48;;;;;;;;;9.00;8.00;;;;;12.22;100.00;102497.19;5019523;28;45369;-77
2023/10/05 06:39:14;;;;;;;;;11.33;10.00;;;;;12.21;100.00;102500.72;5020857;28;45375;-77
2023/10/05 06:41:42;;;;;;;;;6.67;6.67;;;;;12.39;100.00;102534.75;5020671;28;46003;-77
2023/10/05 06:44:10;;;;;;;;;11.67;8.00;;;;;12.34;100.00;102522.50;5018545;28;45510;-77
2023/10/05 06:46:36;;;;;;;;;6.67;6.67;;;;;12.49;100.00;102535.38;5016383;28;45526;-77
2023/10/05 06:49:05;;;;;;;;;10.33;8.33;;;;;12.51;100.00;102537.06;5019860;28;45383;-77
2023/10/05 06:51:31;;;;;;;;;13.33;9.67;;;;;12.50;100.00;102526.47;5032922;28;45476;-77
2023/10/05 06:53:59;;;;;;;;;6.00;6.00;;;;;12.66;100.00;102541.09;5018160;28;45380;-77
2023/10/05 06:56:28;;;;;;;;;5.33;5.33;;;;;12.66;100.00;102533.13;5018502;28;45396;-77
2023/10/05 06:58:54;;;;;;;;;10.33;9.00;;;;;12.74;100.00;102543.50;5019004;28;45321;-77
2023/10/05 07:01:22;;;;;;;;;7.00;7.00;;;;;12.73;100.00;102532.00;5018851;28;45424;-78
2023/10/05 07:03:55;;;;;;;;;10.00;9.00;;;;;12.71;100.00;102511.72;5018299;28;45404;-77
2023/10/05 07:06:22;;;;;;;;;15.00;10.33;;;;;12.90;100.00;102542.16;5018367;28;45314;-78
2023/10/05 07:08:49;;;;;;;;;10.00;10.00;;;;;12.94;100.00;102542.03;5010032;28;45586;-77
2023/10/05 07:11:14;;;;;;;;;11.33;9.33;;;;;12.99;100.00;102544.53;5018124;28;45465;-77
2023/10/05 07:13:39;;;;;;;;;7.00;7.00;;;;;12.94;100.00;102549.13;5017303;28;45260;-76
2023/10/05 07:16:05;;;;;;;;;10.00;7.67;;;;;13.10;100.00;102555.75;5018943;28;45344;-77
2023/10/05 07:18:31;;;;;;;;;11.33;9.33;;;;;13.14;100.00;102557.41;5018222;28;45436;-77
2023/10/05 07:20:57;;;;;;;;;9.67;8.33;;;;;13.22;100.00;102562.50;5011271;28;45459;-78
2023/10/05 07:23:23;;;;;;;;;9.00;9.00;;;;;13.33;100.00;102557.72;5018258;28;45369;-77
2023/10/05 07:25:49;;;;;;;;;12.33;10.33;;;;;13.28;100.00;102526.00;5019010;28;45431;-78
2023/10/05 07:28:14;;;;;;;;;10.00;7.67;;;;;13.56;100.00;102557.88;5019384;28;45518;-77
2023/10/05 07:30:44;;;;;;;;;12.67;10.00;;;;;13.67;100.00;102549.56;5020081;28;45633;-78
2023/10/05 07:33:11;;;;;;;;;12.00;10.33;;;;;13.83;100.00;102562.31;5014903;28;45367;-78
2023/10/05 07:35:37;;;;;;;;;12.00;12.00;;;;;14.00;100.00;102561.75;5017339;28;45325;-78
2023/10/05 07:38:03;;;;;;;;;12.00;10.33;;;;;14.10;100.00;102555.22;5017190;28;45400;-77
2023/10/05 07:40:28;;;;;;;;;17.67;15.00;;;;;14.14;100.00;102532.00;5019168;28;45775;-78
2023/10/05 07:42:54;;;;;;;;;15.33;14.33;;;;;14.30;100.00;102551.88;5019186;28;45392;-78
2023/10/05 07:45:19;;;;;;;;;15.67;13.00;;;;;14.53;100.00;102590.09;5023141;28;45435;-78
2023/10/05 07:47:46;;;;;;;;;16.00;15.00;;;;;14.57;100.00;102582.88;5014029;28;45404;-77
2023/10/05 07:50:15;;;;;;;;;15.33;13.33;;;;;14.48;100.00;102567.22;5037574;28;46573;-78
2023/10/05 07:52:44;;;;;;;;;14.00;14.00;;;;;14.54;100.00;102564.34;5021693;28;45347;-77
2023/10/05 07:55:10;;;;;;;;;11.67;10.33;;;;;14.59;100.00;102554.41;5021036;28;45423;-77
2023/10/05 07:57:35;;;;;;;;;12.00;10.67;;;;;14.74;100.00;102569.81;5020623;28;45456;-77
2023/10/05 08:00:03;;;;;;;;;10.00;9.33;;;;;14.77;100.00;102571.50;5019912;28;45396;-78
2023/10/05 08:02:28;;;;;;;;;11.00;10.00;;;;;14.79;100.00;102572.34;5018188;28;45368;-78
2023/10/05 08:04:54;;;;;;;;;10.33;10.00;;;;;14.86;100.00;102572.03;5018792;28;45525;-78
2023/10/05 08:07:19;;;;;;;;;13.67;11.00;;;;;14.97;100.00;102583.16;5018879;28;45430;-78
2023/10/05 08:09:44;;;;;;;;;14.00;8.00;;;;;15.05;100.00;102591.72;5017047;28;46869;-77
2023/10/05 08:12:15;;;;;;;;;11.00;11.00;;;;;14.97;100.00;102575.19;5018622;28;45207;-77
2023/10/05 08:14:40;;;;;;;;;18.67;16.33;;;;;15.14;100.00;102614.53;5016989;28;45479;-77
2023/10/05 08:17:06;;;;;;;;;17.67;14.00;;;;;15.07;100.00;102591.69;5018245;28;45388;-77
2023/10/05 08:19:31;;;;;;;;;20.67;17.00;;;;;15.17;100.00;102609.09;5016655;28;47606;-77
2023/10/05 08:21:56;;;;;;;;;19.67;17.00;;;;;15.10;100.00;102607.56;5016041;28;45404;-77
2023/10/05 08:24:23;;;;;;;;;15.00;12.33;;;;;15.24;100.00;102633.72;5018852;28;46359;-77
2023/10/05 08:26:52;;;;;;;;;18.00;15.67;;;;;15.26;100.00;102642.50;5018503;28;45459;-77
2023/10/05 08:29:20;;;;;;;;;10.00;10.00;;;;;15.24;100.00;102644.38;5019084;28;45324;-78
2023/10/05 08:31:47;;;;;;;;;13.33;13.33;;;;;15.21;100.00;102648.03;5018248;28;45448;-77
2023/10/05 08:34:17;;;;;;;;;13.33;12.33;;;;;15.26;100.00;102631.84;5016279;28;45390;-77
2023/10/05 08:36:42;;;;;;;;;11.33;9.67;;;;;15.51;100.00;102640.72;5018556;28;45565;-77
2023/10/05 08:39:08;;;;;;;;;5.33;5.33;;;;;15.56;100.00;102620.91;5020108;28;45413;-77
2023/10/05 08:41:39;;;;;;;;;9.33;7.67;;;;;15.61;100.00;102620.72;5022676;28;45442;-77
2023/10/05 08:44:10;;;;;;;;;9.67;8.67;;;;;15.68;100.00;102632.03;5019072;28;45329;-77
2023/10/05 08:46:41;;;;;;;;;8.00;8.00;;;;;15.62;100.00;102635.81;5021710;28;45380;-77
2023/10/05 08:49:09;;;;;;;;;12.67;8.00;;;;;15.64;100.00;102636.59;5020392;28;45536;-77
2023/10/05 08:51:38;;;;;;;;;7.33;7.33;;;;;15.76;100.00;102665.50;5020737;28;45448;-77
2023/10/05 08:54:09;;;;;;;;;8.00;6.33;;;;;15.80;100.00;102663.56;5020206;28;45364;-77
2023/10/05 08:56:35;;;;;;;;;6.00;6.00;;;;;15.79;100.00;102648.50;5022081;28;45368;-77
2023/10/05 08:59:07;;;;;;;;;7.00;7.00;;;;;15.74;100.00;102646.00;5025226;28;45432;-77
2023/10/05 09:01:33;;;;;;;;;11.67;10.00;;;;;15.80;100.00;102653.78;5020881;28;45359;-77
2023/10/05 09:04:11;;;;;;;;;10.67;9.33;;;;;15.83;100.00;102667.00;5021399;28;45423;-77
2023/10/05 09:06:56;;;;;;;;;11.00;6.67;;;;;15.82;100.00;102648.38;5010513;28;45396;-77
2023/10/05 09:09:51;;;;;;;;;12.00;10.67;;;;;15.99;100.00;102641.44;5021533;28;45368;-76
2023/10/05 09:12:17;;;;;;;;;10.67;9.00;;;;;16.26;100.00;102633.22;5019839;28;45517;-77
2023/10/05 09:14:45;;;;;;;;;8.33;7.67;;;;;16.35;95.69;102604.34;5021791;28;45403;-77
2023/10/05 09:17:11;;;;;;;;;7.00;3.67;;;;;16.43;92.36;102587.97;5022185;28;45464;-77
2023/10/05 09:19:37;;;;;;;;;6.00;5.67;;;;;16.83;92.64;102624.53;5022492;28;45341;-77
2023/10/05 09:22:14;;;;;;;;;6.33;6.00;;;;;16.95;87.70;102632.88;5023721;28;45407;-77
2023/10/05 09:24:43;;;;;;;;;7.33;4.67;;;;;16.97;86.33;102646.19;5020751;28;45586;-77
2023/10/05 09:27:15;;;;;;;;;4.00;3.67;;;;;17.09;87.55;102626.91;5021532;28;45525;-77
2023/10/05 09:29:41;;;;;;;;;7.00;6.00;;;;;17.36;86.19;102651.53;5007083;28;47719;-77
2023/10/05 09:32:22;;;;;;;;;5.33;2.67;;;;;17.46;84.69;102645.69;5021113;28;45374;-78
2023/10/05 09:34:50;;;;;;;;;6.00;6.00;;;;;17.51;85.83;102630.28;5019880;28;45458;-77
2023/10/05 09:37:18;;;;;;;;;6.00;5.67;;;;;17.73;85.57;102656.06;5020400;28;45381;-77
2023/10/05 09:39:49;;;;;;;;;10.67;6.33;;;;;17.70;84.12;102617.78;5021562;28;46064;-77
2023/10/05 09:42:25;;;;;;;;;6.33;6.33;;;;;18.02;80.83;102645.69;5020884;28;45440;-78
2023/10/05 09:44:58;;;;;;;;;6.00;5.00;;;;;18.07;77.68;102642.78;5020458;28;45305;-78
2023/10/05 09:47:33;;;;;;;;;5.00;5.00;;;;;18.10;79.71;102651.53;5019586;28;45395;-78
2023/10/05 09:50:00;;;;;;;;;4.00;4.00;;;;;18.04;84.34;102624.19;5018001;28;45942;-77
2023/10/05 09:52:37;;;;;;;;;5.33;4.00;;;;;18.20;78.87;102631.38;5020176;28;45322;-78
2023/10/05 09:55:05;;;;;;;;;4.00;4.00;;;;;18.48;81.58;102640.72;5020576;28;45376;-78
2023/10/05 09:57:41;;;;;;;;;4.67;4.00;;;;;18.61;78.20;102644.53;5019325;28;45337;-78
2023/10/05 10:00:13;;;;;;;;;4.00;4.00;;;;;18.62;72.36;102643.56;5019122;28;47959;-78
2023/10/05 10:02:40;;;;;;;;;5.33;3.67;;;;;18.54;71.50;102630.59;5019877;28;45218;-78
2023/10/05 10:05:25;;;;;;;;;3.00;2.00;;;;;18.51;75.80;102621.84;5021195;28;45211;-78
2023/10/05 10:07:53;;;;;;;;;5.00;1.33;;;;;18.44;78.41;102606.97;5020106;28;45458;-78
2023/10/05 10:10:20;;;;;;;;;3.00;3.00;;;;;18.42;75.30;102607.03;5020504;28;47160;-78
2023/10/05 10:12:46;;;;;;;;;3.00;3.00;;;;;18.58;77.47;102605.38;5019602;28;45439;-78
2023/10/05 10:15:35;;;;;;;;;2.00;2.00;;;;;18.71;73.41;102601.09;5019612;28;45423;-78
2023/10/05 10:18:14;;;;;;;;;2.33;2.33;;;;;18.73;70.25;102609.03;5018944;28;45444;-78
2023/10/05 10:20:48;;;;;;;;;4.00;3.00;;;;;18.77;72.90;102613.31;5020398;28;45359;-78
2023/10/05 10:23:22;;;;;;;;;2.00;2.00;;;;;18.79;70.13;102602.50;5019361;28;45219;-78
2023/10/05 10:25:50;;;;;;;;;5.33;2.67;;;;;18.80;72.00;102589.00;5018813;28;45288;-78
2023/10/05 10:28:56;;;;;;;;;1.33;0.00;;;;;18.71;74.67;102574.31;5020048;28;45373;-78
2023/10/05 10:31:22;;;;;;;;;1.67;1.67;;;;;18.73;69.68;102584.94;5019868;28;46502;-78
2023/10/05 10:33:51;;;;;;;;;1.67;1.00;;;;;18.71;67.38;102594.88;5020404;28;45410;-78
2023/10/05 10:36:46;;;;;;;;;1.00;1.00;;;;;18.71;67.41;102605.59;5018433;28;45405;-78
2023/10/05 10:39:24;;;;;;;;;3.33;2.00;;;;;18.58;68.68;102605.38;5016844;28;45532;-78
2023/10/05 10:42:09;;;;;;;;;2.00;2.00;;;;;18.53;69.20;102620.81;5017548;28;46968;-78
2023/10/05 10:44:57;;;;;;;;;1.33;1.00;;;;;18.44;69.63;102617.69;5021199;28;45353;-78
2023/10/05 10:47:23;;;;;;;;;3.33;2.00;;;;;18.37;69.81;102611.78;5010732;28;45517;-78
2023/10/05 10:50:15;;;;;;;;;7.00;3.00;;;;;18.11;72.27;102609.56;5020092;28;45396;-78
2023/10/05 10:52:43;;;;;;;;;5.33;2.33;;;;;18.07;70.09;102621.34;5020022;28;46212;-78
2023/10/05 10:55:14;;;;;;;;;1.00;1.00;;;;;18.02;67.70;102601.97;5020532;28;45364;-78
2023/10/05 10:57:44;;;;;;;;;3.00;2.00;;;;;18.13;68.79;102619.22;5018952;28;45361;-78
2023/10/05 11:02:56;;;;;;;;;3.00;3.00;;;;;18.06;69.35;102584.84;5019243;28;45687;-78
2023/10/05 11:05:36;;;;;;;;;3.00;2.00;;;;;18.03;69.35;102587.66;5020619;28;45299;-78
2023/10/05 11:08:01;;;;;;;;;3.00;1.00;;;;;18.22;66.95;102612.56;5009306;28;45336;-79
2023/10/05 11:10:30;;;;;;;;;4.00;2.33;;;;;18.34;66.67;102627.16;5025949;28;45601;-78
2023/10/05 11:13:14;;;;;;;;;3.33;0.67;;;;;18.29;68.44;102607.78;5018733;28;45416;-78
2023/10/05 11:15:50;;;;;;;;;3.33;1.33;;;;;18.48;70.19;102613.94;5020027;28;45443;-79
2023/10/05 11:18:18;;;;;;;;;1.00;1.00;;;;;18.45;68.88;102585.47;5017242;28;45444;-79
2023/10/05 11:20:52;;;;;;;;;1.33;1.33;;;;;18.64;68.20;102601.50;5018194;28;45332;-79
2023/10/05 11:23:26;;;;;;;;;4.33;2.00;;;;;18.77;66.61;102604.41;5017544;28;45647;-79
2023/10/05 11:26:03;;;;;;;;;2.33;2.00;;;;;18.53;65.26;102555.63;5018776;28;45823;-79
2023/10/05 11:28:29;;;;;;;;;1.67;1.67;;;;;18.88;66.26;102613.59;5018241;28;45254;-79
2023/10/05 11:30:54;;;;;;;;;2.67;1.00;;;;;18.94;69.16;102599.88;5019251;28;45400;-79
2023/10/05 11:33:20;;;;;;;;;3.00;2.00;;;;;18.99;67.50;102589.75;5018589;28;45494;-79
2023/10/05 11:35:56;;;;;;;;;2.33;1.00;;;;;18.81;63.30;102553.22;5017883;28;45748;-78
2023/10/05 11:38:26;;;;;;;;;1.00;1.00;;;;;18.80;60.67;102554.16;5019044;28;45325;-78
2023/10/05 11:40:56;;;;;;;;;3.00;2.00;;;;;18.91;63.63;102564.31;5018056;28;45487;-78
2023/10/05 11:43:22;;;;;;;;;1.33;1.33;;;;;18.92;63.98;102566.91;5019078;28;45436;-78
2023/10/05 11:46:12;;;;;;;;;1.00;1.00;;;;;18.84;63.23;102544.16;5020919;28;45486;-79
2023/10/05 11:48:42;;;;;;;;;3.67;2.00;;;;;18.94;61.26;102565.03;5013711;28;45585;-78